Time,TemperatureF,DewpointF,PressureIn,WindDirection,WindDirectionDegrees,WindSpeedMPH,WindSpeedGustMPH,Humidity,HourlyPrecipIn,Conditions,Clouds,dailyrainin,SoftwareType,DateUTC
2013-07-29 00:02:00,79.0,77.0,30.09,ESE,106,0.0,1.0,93,0.00,,,1.86,,2013-07-29 04:02:00,
2013-07-29 00:12:00,79.0,77.0,30.08,East,100,0.0,1.0,93,0.00,,,1.86,,2013-07-29 04:12:00,
2013-07-29 00:22:00,80.0,77.0,30.08,East,93,0.0,2.0,92,0.00,,,1.86,,2013-07-29 04:22:00,
2013-07-29 00:32:00,80.0,77.0,30.08,ESE,108,0.0,1.0,91,0.00,,,1.86,,2013-07-29 04:32:00,
2013-07-29 00:43:00,80.0,77.0,30.08,ENE,77,0.0,2.0,90,0.00,,,1.86,,2013-07-29 04:43:00,
2013-07-29 00:53:00,80.0,77.0,30.08,ESE,107,0.0,2.0,90,0.00,,,1.86,,2013-07-29 04:53:00,
2013-07-29 01:02:00,80.0,77.0,30.08,ESE,108,0.0,0.0,90,0.00,,,1.86,,2013-07-29 05:02:00,
2013-07-29 01:12:00,80.0,77.0,30.07,ESE,108,0.0,1.0,91,0.00,,,1.86,,2013-07-29 05:12:00,
2013-07-29 01:22:00,80.0,77.0,30.07,ESE,108,0.0,1.0,91,0.00,,,1.86,,2013-07-29 05:22:00,
2013-07-29 01:32:00,79.0,76.0,30.07,ESE,108,0.0,0.0,91,0.00,,,1.86,,2013-07-29 05:32:00,
2013-07-29 01:42:00,79.0,76.0,30.06,ESE,109,0.0,0.0,91,0.00,,,1.86,,2013-07-29 05:42:00,
2013-07-29 01:53:00,79.0,76.0,30.06,ESE,108,0.0,0.0,91,0.00,,,1.86,,2013-07-29 05:53:00,
2013-07-29 02:02:00,79.0,76.0,30.06,ESE,108,0.0,0.0,92,0.00,,,1.86,,2013-07-29 06:02:00,
2013-07-29 02:12:00,79.0,76.0,30.05,ESE,108,0.0,0.0,92,0.00,,,1.86,,2013-07-29 06:12:00,
2013-07-29 02:22:00,79.0,76.0,30.06,ESE,108,0.0,0.0,92,0.00,,,1.84,,2013-07-29 06:22:00,
2013-07-29 02:32:00,79.0,76.0,30.05,ESE,109,0.0,0.0,92,0.00,,,1.84,,2013-07-29 06:32:00,
2013-07-29 02:43:00,79.0,76.0,30.05,ESE,108,0.0,0.0,92,0.00,,,1.84,,2013-07-29 06:43:00,
2013-07-29 02:52:00,78.0,76.0,30.05,ESE,108,0.0,0.0,93,0.00,,,1.84,,2013-07-29 06:52:00,
2013-07-29 03:02:00,78.0,76.0,30.05,ESE,108,0.0,0.0,93,0.00,,,1.84,,2013-07-29 07:02:00,
2013-07-29 03:12:00,78.0,76.0,30.05,ESE,108,0.0,0.0,93,0.00,,,1.84,,2013-07-29 07:12:00,
2013-07-29 03:23:00,78.0,76.0,30.05,ESE,108,0.0,0.0,93,0.00,,,1.84,,2013-07-29 07:23:00,
2013-07-29 03:33:00,78.0,76.0,30.05,ESE,108,0.0,0.0,94,0.00,,,1.84,,2013-07-29 07:33:00,
2013-07-29 03:43:00,78.0,76.0,30.05,ESE,108,0.0,0.0,94,0.00,,,1.84,,2013-07-29 07:43:00,
2013-07-29 03:53:00,78.0,76.0,30.05,ESE,108,0.0,0.0,94,0.00,,,1.84,,2013-07-29 07:53:00,
2013-07-29 04:02:00,78.0,76.0,30.05,ESE,108,0.0,0.0,94,0.00,,,1.84,,2013-07-29 08:02:00,
2013-07-29 04:12:00,78.0,76.0,30.05,ESE,108,0.0,0.0,95,0.00,,,1.84,,2013-07-29 08:12:00,
2013-07-29 04:22:00,78.0,76.0,30.04,ESE,108,0.0,0.0,95,0.00,,,1.84,,2013-07-29 08:22:00,
2013-07-29 04:33:00,77.0,75.0,30.04,ESE,108,0.0,0.0,95,0.00,,,1.84,,2013-07-29 08:33:00,
2013-07-29 04:42:00,77.0,75.0,30.04,ESE,108,0.0,0.0,95,0.00,,,1.84,,2013-07-29 08:42:00,
2013-07-29 04:52:00,77.0,75.0,30.05,ESE,108,0.0,0.0,95,0.00,,,1.84,,2013-07-29 08:52:00,
2013-07-29 05:02:00,77.0,75.0,30.04,ESE,108,0.0,0.0,95,0.00,,,1.84,,2013-07-29 09:02:00,
2013-07-29 05:12:00,77.0,75.0,30.04,ESE,108,0.0,0.0,95,0.00,,,1.84,,2013-07-29 09:12:00,
2013-07-29 05:22:00,77.0,76.0,30.05,ESE,108,0.0,0.0,96,0.00,,,1.84,,2013-07-29 09:22:00,
2013-07-29 05:33:00,77.0,76.0,30.05,ESE,108,0.0,0.0,96,0.00,,,1.84,,2013-07-29 09:33:00,
2013-07-29 05:43:00,77.0,76.0,30.05,ESE,108,0.0,0.0,96,0.00,,,1.84,,2013-07-29 09:43:00,
2013-07-29 05:53:00,77.0,76.0,30.05,ESE,108,0.0,0.0,96,0.00,,,1.84,,2013-07-29 09:53:00,
2013-07-29 06:04:00,77.0,76.0,30.05,ESE,108,0.0,0.0,96,0.00,,,1.84,,2013-07-29 10:04:00,
2013-07-29 06:14:00,77.0,76.0,30.06,ESE,108,0.0,0.0,96,0.00,,,1.84,,2013-07-29 10:14:00,
2013-07-29 06:25:00,77.0,76.0,30.06,ESE,108,0.0,0.0,96,0.00,,,1.84,,2013-07-29 10:25:00,
2013-07-29 06:37:00,77.0,76.0,30.06,ESE,108,0.0,0.0,96,0.00,,,1.84,,2013-07-29 10:37:00,
2013-07-29 06:48:00,76.0,75.0,30.06,ESE,108,0.0,0.0,97,0.00,,,1.84,,2013-07-29 10:48:00,
2013-07-29 07:05:00,77.0,76.0,30.07,ESE,108,0.0,0.0,97,0.00,,,1.84,,2013-07-29 11:05:00,
2013-07-29 07:15:00,77.0,76.0,30.07,ESE,108,0.0,0.0,97,0.00,,,1.84,,2013-07-29 11:15:00,
2013-07-29 07:24:00,77.0,76.0,30.08,ESE,108,0.0,0.0,97,0.00,,,1.84,,2013-07-29 11:24:00,
2013-07-29 07:44:00,77.0,76.0,30.08,ESE,108,0.0,1.0,97,0.00,,,1.84,,2013-07-29 11:44:00,
2013-07-29 07:56:00,77.0,76.0,30.09,ESE,107,0.0,0.0,97,0.00,,,1.84,,2013-07-29 11:56:00,
2013-07-29 08:09:00,77.0,76.0,30.09,ESE,109,0.0,0.0,97,0.00,,,1.84,,2013-07-29 12:09:00,
2013-07-29 08:15:00,78.0,77.0,30.10,ESE,108,0.0,0.0,97,0.00,,,1.84,,2013-07-29 12:15:00,
2013-07-29 08:27:00,78.0,77.0,30.10,WSW,248,1.0,3.0,97,0.00,,,1.83,,2013-07-29 12:27:00,
2013-07-29 08:45:00,79.0,78.0,30.10,West,262,0.0,0.0,97,0.00,,,1.83,,2013-07-29 12:45:00,
2013-07-29 08:55:00,81.0,79.0,30.10,SW,217,0.0,0.0,95,0.00,,,1.83,,2013-07-29 12:55:00,
2013-07-29 09:17:00,84.0,79.0,30.11,East,101,0.0,1.0,85,0.00,,,1.83,,2013-07-29 13:17:00,
2013-07-29 09:28:00,85.0,79.0,30.11,East,96,0.0,1.0,82,0.00,,,1.83,,2013-07-29 13:28:00,
2013-07-29 09:45:00,86.0,79.0,30.11,NNE,33,0.0,1.0,81,0.00,,,1.83,,2013-07-29 13:45:00,
2013-07-29 09:54:00,87.0,78.0,30.11,ESE,117,0.0,2.0,75,0.00,,,1.83,,2013-07-29 13:54:00,
2013-07-29 10:07:00,88.0,79.0,30.11,East,100,0.0,2.0,75,0.00,,,1.83,,2013-07-29 14:07:00,
2013-07-29 10:13:00,88.0,79.0,30.11,ESE,116,0.0,2.0,75,0.00,,,1.83,,2013-07-29 14:13:00,
2013-07-29 10:28:00,88.0,79.0,30.11,ESE,116,0.0,2.0,75,0.00,,,1.83,,2013-07-29 14:28:00,
2013-07-29 10:35:00,90.0,80.0,30.11,ESE,107,0.0,1.0,72,0.00,,,1.83,,2013-07-29 14:35:00,
2013-07-29 10:46:00,90.0,79.0,30.11,East,81,0.0,4.0,71,0.00,,,1.83,,2013-07-29 14:46:00,
2013-07-29 10:55:00,90.0,78.0,30.12,NE,37,1.0,6.0,69,0.00,,,1.83,,2013-07-29 14:55:00,
2013-07-29 11:37:00,90.0,77.0,30.12,ESE,105,1.0,5.0,66,0.00,,,1.83,,2013-07-29 15:37:00,
2013-07-29 11:45:00,90.0,76.0,30.13,ESE,108,4.0,8.0,64,0.00,,,1.83,,2013-07-29 15:45:00,
2013-07-29 12:08:00,90.0,78.0,30.13,ENE,62,2.0,8.0,68,0.00,,,1.83,,2013-07-29 16:08:00,
2013-07-29 12:24:00,91.0,78.0,30.13,East,97,2.0,8.0,67,0.00,,,1.83,,2013-07-29 16:24:00,
2013-07-29 12:39:00,91.0,77.0,30.13,East,84,2.0,7.0,64,0.00,,,1.83,,2013-07-29 16:39:00,
2013-07-29 12:47:00,91.0,77.0,30.13,SE,131,3.0,7.0,63,0.00,,,1.83,,2013-07-29 16:47:00,
2013-07-29 13:08:00,91.0,78.0,30.13,East,88,1.0,7.0,65,0.00,,,1.83,,2013-07-29 17:08:00,
2013-07-29 13:41:00,91.0,78.0,30.13,ESE,122,2.0,7.0,65,0.00,,,1.83,,2013-07-29 17:41:00,
2013-07-29 13:57:00,92.0,77.0,30.12,East,85,3.0,7.0,61,0.00,,,1.83,,2013-07-29 17:57:00,
2013-07-29 14:06:00,91.0,76.0,30.12,East,80,4.0,12.0,62,0.00,,,1.83,,2013-07-29 18:06:00,
2013-07-29 14:56:00,90.0,76.0,30.12,East,82,2.0,8.0,64,0.00,,,1.83,,2013-07-29 18:56:00,
2013-07-29 15:38:00,89.0,77.0,30.11,East,89,3.0,10.0,67,0.00,,,1.82,,2013-07-29 19:38:00,
2013-07-29 15:54:00,90.0,78.0,30.10,East,95,3.0,8.0,67,0.00,,,1.82,,2013-07-29 19:54:00,
2013-07-29 16:08:00,90.0,78.0,30.10,NE,44,3.0,8.0,69,0.00,,,1.82,,2013-07-29 20:08:00,
2013-07-29 16:56:00,88.0,77.0,30.11,ENE,75,2.0,8.0,71,0.00,,,0.06,,2013-07-29 20:56:00,
2013-07-29 17:36:00,89.0,78.0,30.11,ENE,65,1.0,4.0,71,0.00,,,0.00,,2013-07-29 21:36:00,
2013-07-29 17:48:00,89.0,79.0,30.10,East,79,1.0,6.0,73,0.00,,,0.00,,2013-07-29 21:48:00,
2013-07-29 17:57:00,88.0,78.0,30.10,East,97,2.0,7.0,72,0.00,,,0.00,,2013-07-29 21:57:00,
2013-07-29 18:17:00,88.0,77.0,30.09,ENE,77,2.0,8.0,71,0.00,,,0.00,,2013-07-29 22:17:00,
2013-07-29 18:25:00,88.0,78.0,30.09,East,89,1.0,7.0,72,0.00,,,0.00,,2013-07-29 22:25:00,
2013-07-29 18:37:00,87.0,77.0,30.09,East,79,2.0,9.0,72,0.00,,,0.00,,2013-07-29 22:37:00,
2013-07-29 18:44:00,87.0,78.0,30.10,East,80,3.0,7.0,74,0.00,,,0.00,,2013-07-29 22:44:00,
2013-07-29 19:06:00,86.0,78.0,30.10,East,89,1.0,7.0,76,0.00,,,0.00,,2013-07-29 23:06:00,
2013-07-29 19:14:00,86.0,78.0,30.10,East,82,1.0,5.0,77,0.00,,,0.00,,2013-07-29 23:14:00,
2013-07-29 19:26:00,85.0,77.0,30.10,ENE,69,2.0,5.0,78,0.00,,,0.00,,2013-07-29 23:26:00,
2013-07-29 19:35:00,85.0,77.0,30.10,ENE,75,1.0,5.0,78,0.00,,,0.00,,2013-07-29 23:35:00,
2013-07-29 19:55:00,85.0,78.0,30.11,ESE,119,1.0,6.0,79,0.00,,,0.00,,2013-07-29 23:55:00,
2013-07-29 20:08:00,85.0,78.0,30.11,East,82,2.0,5.0,79,0.00,,,0.00,,2013-07-30 00:08:00,
2013-07-29 20:18:00,85.0,78.0,30.11,East,82,2.0,5.0,79,0.00,,,0.00,,2013-07-30 00:18:00,
2013-07-29 20:26:00,84.0,78.0,30.12,East,80,1.0,6.0,81,0.00,,,0.00,,2013-07-30 00:26:00,
2013-07-29 20:35:00,84.0,78.0,30.13,East,98,1.0,5.0,81,0.00,,,0.00,,2013-07-30 00:35:00,
2013-07-29 21:07:00,84.0,78.0,30.14,East,100,0.0,4.0,81,0.00,,,0.00,,2013-07-30 01:07:00,
2013-07-29 21:16:00,84.0,78.0,30.14,East,84,0.0,4.0,81,0.00,,,0.00,,2013-07-30 01:16:00,
2013-07-29 21:37:00,84.0,78.0,30.14,South,183,0.0,4.0,81,0.00,,,0.00,,2013-07-30 01:37:00,
2013-07-29 21:44:00,84.0,78.0,30.14,East,89,1.0,3.0,82,0.00,,,0.00,,2013-07-30 01:44:00,
2013-07-29 21:56:00,83.0,77.0,30.15,East,91,0.0,6.0,83,0.00,,,0.00,,2013-07-30 01:56:00,
2013-07-29 22:38:00,82.0,77.0,30.15,East,81,0.0,1.0,86,0.00,,,0.00,,2013-07-30 02:38:00,
2013-07-29 22:45:00,82.0,77.0,30.15,ENE,77,0.0,1.0,86,0.00,,,0.00,,2013-07-30 02:45:00,
2013-07-29 23:08:00,82.0,77.0,30.15,East,98,0.0,0.0,86,0.00,,,0.00,,2013-07-30 03:08:00,
2013-07-29 23:25:00,83.0,78.0,30.15,ENE,69,0.0,2.0,86,0.00,,,0.00,,2013-07-30 03:25:00,
2013-07-29 23:45:00,83.0,78.0,30.15,East,85,0.0,2.0,86,0.00,,,0.00,,2013-07-30 03:45:00,